This is the latest recevied weather packets stored in our database for station/object EA5AER-5. If no packets are shown the sender has not sent any weather packets the latest 10 day(s).
| Time | Temp. | Humidity | Pressure | Rain* | Wind** | Luminosity | Snow |
|---|---|---|---|---|---|---|---|
| 1778084733 | 18.33° C | 66% | 1009.8 hPa | 0 mm | - | 267 W/m² | - |
| 1778083525 | 18.33° C | 66% | 1009.8 hPa | 0 mm | - | 267 W/m² | - |
| 1778082270 | 18.33° C | 66% | 1009.8 hPa | 0 mm | - | 267 W/m² | - |
| 1778081071 | 18.33° C | 66% | 1009.8 hPa | 0 mm | - | 267 W/m² | - |
| 1778079776 | 18.33° C | 66% | 1009.8 hPa | 0 mm | - | 267 W/m² | - |
| 1778078482 | 18.33° C | 66% | 1009.8 hPa | 0 mm | - | 267 W/m² | - |
| 1778077300 | 18.33° C | 66% | 1009.8 hPa | 0 mm | - | 267 W/m² | - |
| 1778076050 | 17.78° C | 68% | 1010 hPa | 0 mm | - | 251 W/m² | - |
| 1778074910 | 17.78° C | 68% | 1010 hPa | 0 mm | - | 251 W/m² | - |
| 1778073666 | 18.89° C | 65% | 1010.2 hPa | 0 mm | - | 383 W/m² | - |
| 1778072533 | 18.89° C | 65% | 1010.2 hPa | 0 mm | - | 383 W/m² | - |
| 1778071303 | 18.89° C | 68% | 1010.4 hPa | 0 mm | - | 420 W/m² | - |
| 1778070145 | 18.89° C | 68% | 1010.4 hPa | 0 mm | - | 420 W/m² | - |
| 1778068883 | 18.89° C | 66% | 1010.7 hPa | 0 mm | - | 974 W/m² | - |
| 1778067690 | 18.89° C | 66% | 1010.7 hPa | 0 mm | - | 974 W/m² | - |
| 1778066548 | 18.89° C | 66% | 1010.7 hPa | 0 mm | - | 974 W/m² | - |
| 1778065335 | 18.89° C | 67% | 1010.7 hPa | 0 mm | - | 700 W/m² | - |
| 1778064100 | 18.33° C | 70% | 1010.7 hPa | 0 mm | - | 304 W/m² | - |
| 1778062983 | 18.33° C | 70% | 1010.7 hPa | 0 mm | - | 304 W/m² | - |
| 1778061781 | 18.33° C | 69% | 1010.6 hPa | 0 mm | - | 281 W/m² | - |
| 1778060567 | 18.33° C | 69% | 1010.6 hPa | 0 mm | - | 281 W/m² | - |
| 1778059305 | 17.78° C | 71% | 1009.4 hPa | 0 mm | - | 39 W/m² | - |
| 1778058150 | 17.78° C | 71% | 1009.4 hPa | 0 mm | - | 39 W/m² | - |
| 1778056942 | 17.78° C | 71% | 1009.4 hPa | 0 mm | - | 39 W/m² | - |
| 1778055690 | 17.78° C | 71% | 1009.4 hPa | 0 mm | - | 39 W/m² | - |
* Rain latest hour (hover to see other rain measurements)
** Current wind speed in m/s (hover to see current wind gust speed)